Time;durP1;ratioP1;P1;durP2;ratioP2;P2;SDS_P1;SDS_P2;PMS_P1;PMS_P2;Temp;Humidity;BMP_temperature;BMP_pressure;BME280_temperature;BME280_humidity;BME280_pressure;Samples;Min_cycle;Max_cycle;Signal;HPM_P1;HPM_P2
2021/04/18 00:00:19;;;;;;;18.85;15.90;;;;;;;6.27;80.75;99861.58;1769954;79;21596;-68
2021/04/18 00:02:50;;;;;;;22.77;16.35;;;;;;;6.20;80.78;99862.64;1772157;79;21957;-71
2021/04/18 00:05:24;;;;;;;18.62;15.58;;;;;;;6.17;80.76;99862.69;1733126;80;21995;-69
2021/04/18 00:07:54;;;;;;;20.45;15.55;;;;;;;6.18;80.93;99856.59;1740003;80;21672;-68
2021/04/18 00:10:23;;;;;;;19.70;16.90;;;;;;;6.29;80.85;99856.34;1700795;82;21584;-70
2021/04/18 00:12:51;;;;;;;19.05;16.35;;;;;;;6.30;80.73;99845.86;1735484;80;21615;-68
2021/04/18 00:15:19;;;;;;;22.07;17.80;;;;;;;6.29;80.75;99850.69;1735118;81;21584;-67
2021/04/18 00:17:47;;;;;;;22.13;16.23;;;;;;;6.33;80.55;99854.06;1692030;82;21647;-67
2021/04/18 00:20:16;;;;;;;23.00;16.95;;;;;;;6.37;80.47;99855.28;1713680;82;21609;-66
2021/04/18 00:22:44;;;;;;;20.60;16.82;;;;;;;6.45;80.41;99860.33;1731141;81;21599;-66
2021/04/18 00:25:15;;;;;;;22.93;17.48;;;;;;;6.45;80.31;99860.79;1744012;80;21580;-66
2021/04/18 00:27:45;;;;;;;22.45;16.67;;;;;;;6.38;80.23;99857.44;1711912;82;21180;-66
2021/04/18 00:30:19;;;;;;;23.02;17.45;;;;;;;6.29;80.31;99853.30;1726404;81;22049;-67
2021/04/18 00:32:47;;;;;;;21.10;16.25;;;;;;;6.31;80.53;99847.59;1711568;82;21594;-65
2021/04/18 00:35:16;;;;;;;21.85;17.25;;;;;;;6.43;80.35;99851.67;1709321;82;21603;-65
2021/04/18 00:37:44;;;;;;;18.45;15.58;;;;;;;6.46;80.29;99855.96;1727120;80;21588;-66
2021/04/18 00:40:17;;;;;;;20.77;16.90;;;;;;;6.47;80.37;99854.63;1739805;80;21286;-66
2021/04/18 00:42:45;;;;;;;20.43;14.98;;;;;;;6.45;80.05;99855.56;1735214;80;21991;-66
2021/04/18 00:45:13;;;;;;;22.02;16.50;;;;;;;6.39;80.27;99848.27;1721589;81;21608;-66
2021/04/18 00:47:49;;;;;;;24.52;17.25;;;;;;;6.49;80.49;99846.30;1718630;82;21131;-65
2021/04/18 00:50:29;;;;;;;22.77;16.52;;;;;;;6.50;80.45;99846.73;1689049;82;21585;-66
2021/04/18 00:52:57;;;;;;;22.02;17.02;;;;;;;6.45;80.55;99839.44;1708511;82;21648;-68
2021/04/18 00:55:26;;;;;;;;;;;;;;;6.45;80.55;99845.12;1705439;82;21858;-66
2021/04/18 00:57:55;;;;;;;24.65;15.08;;;;;;;6.48;80.66;99839.80;1702571;82;20583;-66
2021/04/18 01:00:24;;;;;;;24.43;15.58;;;;;;;6.60;80.51;99846.06;1757235;79;21619;-66
2021/04/18 01:02:52;;;;;;;31.85;15.65;;;;;;;6.54;80.34;99840.53;1750098;80;21580;-66
2021/04/18 01:05:20;;;;;;;25.55;14.58;;;;;;;6.49;80.44;99831.94;1709516;81;21680;-66
2021/04/18 01:07:50;;;;;;;19.92;14.83;;;;;;;6.47;80.41;99835.03;1741422;80;22556;-66
2021/04/18 01:10:18;;;;;;;19.23;13.93;;;;;;;6.51;80.62;99834.52;1746993;80;21621;-66
2021/04/18 01:12:46;;;;;;;20.70;14.07;;;;;;;6.55;80.60;99827.87;1745494;80;21580;-66
2021/04/18 01:15:16;;;;;;;18.40;14.33;;;;;;;6.51;80.53;99825.37;1753274;80;21622;-63
2021/04/18 01:17:45;;;;;;;20.02;15.32;;;;;;;6.49;80.51;99824.56;1754048;79;21604;-65
2021/04/18 01:20:19;;;;;;;19.23;14.13;;;;;;;6.41;80.35;99816.44;1741492;79;22124;-65
2021/04/18 01:22:52;;;;;;;18.07;14.25;;;;;;;6.40;80.57;99814.75;1744233;80;21588;-69
2021/04/18 01:25:42;;;;;;;17.62;13.28;;;;;;;6.57;80.34;99808.24;1822528;76;23697;-65
2021/04/18 01:28:19;;;;;;;15.78;13.55;;;;;;;6.46;80.25;99808.52;1780531;77;21587;-68
2021/04/18 01:30:47;;;;;;;16.67;14.15;;;;;;;6.36;80.34;99813.53;1779882;77;21965;-65
2021/04/18 01:33:15;;;;;;;15.32;13.03;;;;;;;6.28;80.40;99818.08;1774956;77;21579;-66
2021/04/18 01:35:46;;;;;;;17.62;14.30;;;;;;;6.29;80.49;99804.98;1785024;77;21583;-67
2021/04/18 01:38:16;;;;;;;14.87;13.40;;;;;;;6.43;80.35;99805.97;1775139;77;21623;-66
2021/04/18 01:40:44;;;;;;;14.95;13.43;;;;;;;6.30;80.31;99803.23;1765943;79;21584;-66
2021/04/18 01:43:18;;;;;;;15.13;13.53;;;;;;;6.19;80.46;99806.92;1787790;77;21941;-65
2021/04/18 01:45:48;;;;;;;15.60;13.90;;;;;;;6.11;80.65;99797.11;1754091;79;21565;-67
2021/04/18 01:48:18;;;;;;;16.57;14.70;;;;;;;6.11;80.89;99798.87;1788590;77;21577;-67
2021/04/18 01:50:50;;;;;;;15.98;13.40;;;;;;;6.14;80.94;99796.17;1771495;77;21622;-69
2021/04/18 01:53:20;;;;;;;15.13;13.48;;;;;;;6.06;81.11;99792.88;1754666;79;21585;-67
2021/04/18 01:56:02;;;;;;;17.02;13.72;;;;;;;5.98;81.28;99791.75;1783724;77;22073;-67
2021/04/18 01:58:33;;;;;;;19.80;13.15;;;;;;;5.91;81.21;99789.66;1801560;77;21578;-68
2021/04/18 02:01:16;;;;;;;15.45;13.32;;;;;;;6.04;81.33;99794.21;1865804;75;23141;-68
2021/04/18 02:03:46;;;;;;;18.07;13.75;;;;;;;6.03;81.23;99789.91;1798259;77;21600;-70
2021/04/18 02:06:16;;;;;;;15.45;13.83;;;;;;;5.98;81.28;99796.51;1825329;76;21858;-66
2021/04/18 02:08:46;;;;;;;18.00;13.80;;;;;;;5.97;81.30;99791.31;1827654;75;21181;-67
2021/04/18 02:11:17;;;;;;;16.97;14.68;;;;;;;6.00;81.38;99792.56;1820822;75;21587;-70
2021/04/18 02:13:47;;;;;;;16.52;14.07;;;;;;;6.11;81.30;99794.95;1818798;75;21658;-69
2021/04/18 02:16:19;;;;;;;17.50;14.05;;;;;;;6.03;81.24;99792.05;1819899;76;21619;-72
2021/04/18 02:18:51;;;;;;;15.00;13.18;;;;;;;6.00;81.28;99783.44;1821072;75;22017;-70
2021/04/18 02:21:20;;;;;;;15.98;13.25;;;;;;;5.99;81.33;99782.58;1794685;77;21650;-74
2021/04/18 02:23:48;;;;;;;16.73;13.75;;;;;;;5.97;81.51;99781.76;1826732;75;21647;-71
2021/04/18 02:26:16;;;;;;;15.13;13.55;;;;;;;6.01;81.61;99781.25;1817323;75;21585;-72
2021/04/18 02:28:46;;;;;;;17.12;14.78;;;;;;;5.98;81.64;99778.23;1781031;77;21631;-70
2021/04/18 02:31:14;;;;;;;16.27;14.00;;;;;;;5.94;81.77;99771.80;1825004;75;21893;-71
2021/04/18 02:33:43;;;;;;;16.62;14.50;;;;;;;5.93;81.77;99772.22;1823918;76;21583;-70
2021/04/18 02:36:12;;;;;;;14.60;13.08;;;;;;;5.94;82.30;99767.42;1829134;75;21564;-71
2021/04/18 02:38:42;;;;;;;15.83;14.00;;;;;;;6.05;81.96;99763.31;1829528;75;21802;-70
2021/04/18 02:41:11;;;;;;;14.78;13.25;;;;;;;6.03;81.98;99763.34;1820006;76;21551;-71
2021/04/18 02:43:39;;;;;;;14.90;13.30;;;;;;;6.07;81.88;99768.05;1824551;75;21924;-70
2021/04/18 02:46:09;;;;;;;15.60;12.25;;;;;;;6.08;81.81;99760.61;1833002;75;21551;-70
2021/04/18 02:48:38;;;;;;;14.63;12.58;;;;;;;6.21;81.75;99759.44;1831423;75;21646;-71
2021/04/18 02:51:06;;;;;;;14.63;12.95;;;;;;;6.34;81.50;99752.64;1808783;77;21580;-70
2021/04/18 02:53:35;;;;;;;16.60;13.50;;;;;;;6.30;81.19;99744.47;1830566;75;21567;-70
2021/04/18 02:56:05;;;;;;;15.60;13.00;;;;;;;6.24;81.20;99746.78;1811077;77;21903;-68
2021/04/18 02:58:35;;;;;;;15.38;12.43;;;;;;;6.15;81.22;99747.84;1825385;76;21132;-72
2021/04/18 03:01:04;;;;;;;14.78;12.75;;;;;;;6.18;81.46;99745.17;1825704;76;21559;-68
2021/04/18 03:03:32;;;;;;;13.28;11.88;;;;;;;6.18;81.28;99746.48;1793943;76;21532;-70
2021/04/18 03:06:01;;;;;;;15.15;12.53;;;;;;;6.06;81.36;99748.05;1818577;76;21576;-66
2021/04/18 03:08:32;;;;;;;15.03;12.75;;;;;;;5.99;81.52;99751.27;1813921;77;21202;-65
2021/04/18 03:11:00;;;;;;;14.07;12.28;;;;;;;6.04;81.73;99748.53;1809665;77;21680;-64
2021/04/18 03:13:29;;;;;;;15.50;12.15;;;;;;;6.12;81.64;99745.32;1794644;78;21586;-65
2021/04/18 03:15:59;;;;;;;14.93;12.07;;;;;;;6.14;81.55;99746.56;1802591;77;21610;-66
2021/04/18 03:18:28;;;;;;;13.40;12.03;;;;;;;6.15;81.49;99737.39;1802432;77;21118;-65
2021/04/18 03:20:56;;;;;;;13.35;12.03;;;;;;;5.98;81.47;99716.05;1822582;76;22374;-65
2021/04/18 03:23:26;;;;;;;13.72;12.30;;;;;;;6.19;81.42;99745.56;1816055;77;21651;-66
2021/04/18 03:25:55;;;;;;;14.25;12.40;;;;;;;6.29;81.20;99743.63;1797499;77;21612;-66
2021/04/18 03:28:23;;;;;;;13.80;11.53;;;;;;;6.26;80.84;99735.85;1819973;76;22084;-64
2021/04/18 03:30:53;;;;;;;14.85;12.73;;;;;;;6.19;80.87;99736.42;1808230;77;21617;-67
2021/04/18 03:33:23;;;;;;;14.93;12.50;;;;;;;6.15;80.86;99736.09;1813202;76;21905;-67
2021/04/18 03:35:53;;;;;;;12.23;10.98;;;;;;;6.22;80.85;99744.66;1812884;76;21580;-67
2021/04/18 03:38:23;;;;;;;22.42;11.65;;;;;;;6.21;80.88;99748.14;1757540;79;21181;-67
2021/04/18 03:40:51;;;;;;;14.73;12.47;;;;;;;6.20;81.02;99749.91;1774339;78;21629;-66
2021/04/18 03:43:21;;;;;;;14.80;12.03;;;;;;;6.19;81.12;99748.63;1782895;78;21630;-67
2021/04/18 03:45:49;;;;;;;13.95;11.48;;;;;;;6.20;80.99;99746.45;1787172;78;21938;-66
2021/04/18 03:48:18;;;;;;;11.30;10.20;;;;;;;6.27;81.02;99749.76;1778152;78;21605;-69
2021/04/18 03:50:48;;;;;;;11.97;10.78;;;;;;;6.31;80.73;99747.48;1778920;78;21191;-66
2021/04/18 03:53:38;;;;;;;10.93;9.70;;;;;;;6.28;80.51;99743.66;1829272;75;23150;-64
2021/04/18 03:56:08;;;;;;;10.53;9.43;;;;;;;6.16;80.39;99742.16;1774894;77;21656;-67
2021/04/18 03:58:42;;;;;;;10.58;9.48;;;;;;;6.16;80.73;99740.86;1775255;77;21548;-67
2021/04/18 04:01:12;;;;;;;10.32;9.33;;;;;;;6.27;80.61;99741.47;1775866;77;21596;-67
2021/04/18 04:03:41;;;;;;;10.30;9.25;;;;;;;6.27;80.30;99738.00;1783611;77;21556;-66
2021/04/18 04:06:24;;;;;;;9.08;8.18;;;;;;;6.15;80.28;99748.30;1789069;77;21118;-66
2021/04/18 04:08:54;;;;;;;10.18;8.18;;;;;;;6.04;80.25;99742.00;1769994;78;21638;-67
2021/04/18 04:11:25;;;;;;;8.90;8.10;;;;;;;6.10;80.47;99746.23;1768282;78;23876;-67
2021/04/18 04:13:54;;;;;;;9.48;8.53;;;;;;;6.16;80.17;99740.86;1712727;79;21279;-64
2021/04/18 04:16:23;;;;;;;9.45;8.60;;;;;;;6.11;80.31;99744.89;1756013;78;21667;-61
2021/04/18 04:18:53;;;;;;;12.47;10.00;;;;;;;6.11;80.42;99746.20;1759907;78;21563;-64
2021/04/18 04:21:25;;;;;;;9.63;8.50;;;;;;;6.19;80.74;99744.26;1765843;78;21586;-67
2021/04/18 04:23:55;;;;;;;9.38;8.45;;;;;;;6.39;80.85;99753.40;1757771;78;21841;-68
2021/04/18 04:26:22;;;;;;;;;;;;;;;6.43;80.32;99748.50;1736509;80;21630;-65
2021/04/18 04:28:50;;;;;;;;;;;;;;;6.43;80.09;99745.89;1702309;81;20556;-64
2021/04/18 04:31:18;;;;;;;;;;;;;;;6.31;80.33;99747.05;1681438;82;20850;-66
2021/04/18 04:33:46;;;;;;;10.35;9.10;;;;;;;6.30;80.62;99749.70;1702336;83;20975;-67
2021/04/18 04:36:14;;;;;;;10.90;9.75;;;;;;;6.42;80.54;99747.66;1700048;81;22086;-65
2021/04/18 04:38:44;;;;;;;11.50;10.30;;;;;;;6.50;80.03;99747.47;1754303;78;21658;-66
2021/04/18 04:41:12;;;;;;;11.48;10.32;;;;;;;6.38;79.79;99747.75;1763742;79;21791;-66
2021/04/18 04:43:40;;;;;;;;;;;;;;;6.27;80.18;99752.36;1732152;80;21652;-68
2021/04/18 04:46:08;;;;;;;12.82;11.18;;;;;;;6.27;80.54;99756.28;1730771;80;20550;-67
2021/04/18 04:48:40;;;;;;;14.23;10.50;;;;;;;6.35;80.50;99748.69;1763594;78;21576;-69
2021/04/18 04:51:08;;;;;;;12.30;10.55;;;;;;;6.43;80.45;99748.50;1757688;78;22197;-68
2021/04/18 04:53:36;;;;;;;11.78;10.58;;;;;;;6.43;80.37;99745.44;1770143;78;21623;-63
2021/04/18 04:56:05;;;;;;;12.05;10.75;;;;;;;6.39;80.37;99745.56;1721334;80;21607;-70
2021/04/18 04:58:34;;;;;;;12.05;10.65;;;;;;;6.41;80.41;99739.85;1750812;78;21588;-64
2021/04/18 05:01:01;;;;;;;13.03;11.08;;;;;;;6.50;80.48;99743.97;1759926;78;22098;-63
2021/04/18 05:03:30;;;;;;;12.47;11.20;;;;;;;6.57;80.16;99738.59;1770952;78;21586;-62
2021/04/18 17:12:47;;;;;;;5.42;4.78;;;;;;;7.91;72.86;99801.66;1736318;79;23212;-63
2021/04/18 17:15:15;;;;;;;6.15;5.05;;;;;;;7.93;73.39;99800.28;1706521;82;21584;-61
2021/04/18 17:17:44;;;;;;;6.37;5.60;;;;;;;8.08;73.73;99802.47;1720340;80;22082;-60
2021/04/18 17:20:13;;;;;;;;;;;;;;;8.18;74.00;99803.89;1717778;80;21568;-60
2021/04/18 17:22:41;;;;;;;5.47;4.50;;;;;;;8.26;73.21;99811.98;1709806;80;20614;-61
2021/04/18 17:25:10;;;;;;;5.85;4.42;;;;;;;8.24;73.08;99812.48;1715087;82;21639;-61
2021/04/18 17:27:39;;;;;;;4.37;3.90;;;;;;;8.20;73.65;99814.33;1715268;80;21584;-64
2021/04/18 17:30:10;;;;;;;3.75;3.37;;;;;;;8.19;73.20;99812.59;1724159;82;21847;-66
2021/04/18 17:32:38;;;;;;;3.95;3.55;;;;;;;8.30;73.17;99813.59;1715273;82;21624;-67
2021/04/18 17:35:07;;;;;;;4.10;3.12;;;;;;;8.36;73.07;99820.82;1713270;80;21202;-66
2021/04/18 17:37:35;;;;;;;4.08;3.00;;;;;;;8.32;72.85;99820.95;1712116;82;21548;-67
2021/04/18 17:40:04;;;;;;;;;;;;;;;8.28;72.62;99824.11;1723522;82;21597;-66
2021/04/18 17:42:31;;;;;;;3.58;3.22;;;;;;;8.24;71.77;99829.50;1713264;82;21987;-66
2021/04/18 17:45:00;;;;;;;4.00;3.60;;;;;;;8.14;72.56;99834.16;1716025;80;21692;-66
2021/04/18 17:47:28;;;;;;;4.67;3.95;;;;;;;8.06;72.52;99838.32;1712297;80;21697;-65
2021/04/18 17:49:59;;;;;;;3.55;3.25;;;;;;;8.02;72.58;99843.22;1715193;80;21162;-64
2021/04/18 17:52:27;;;;;;;4.95;3.33;;;;;;;8.10;72.49;99844.30;1710669;82;21190;-68
2021/04/18 17:54:56;;;;;;;3.92;3.58;;;;;;;8.12;72.44;99844.68;1721644;80;21870;-69
2021/04/18 17:57:23;;;;;;;4.03;3.72;;;;;;;8.07;72.16;99841.33;1716090;80;21766;-69
2021/04/18 17:59:53;;;;;;;4.00;3.37;;;;;;;8.03;72.19;99842.33;1714961;80;21608;-68
2021/04/18 18:02:21;;;;;;;4.83;4.28;;;;;;;7.92;71.70;99841.78;1714116;80;21607;-72
2021/04/18 18:04:50;;;;;;;4.15;3.83;;;;;;;7.83;71.54;99844.66;1712289;80;21681;-70
2021/04/18 18:07:18;;;;;;;4.05;3.60;;;;;;;7.70;71.72;99843.68;1709180;80;22111;-67
2021/04/18 18:09:48;;;;;;;3.52;3.22;;;;;;;7.63;71.83;99853.05;1715142;80;21648;-68
2021/04/18 18:12:15;;;;;;;;;;;;;;;7.61;72.02;99853.12;1714969;82;21695;-69
2021/04/18 18:14:46;;;;;;;5.55;4.42;;;;;;;7.64;71.50;99858.25;1711873;80;20583;-66
2021/04/18 18:17:14;;;;;;;4.15;3.05;;;;;;;7.58;71.91;99860.58;1717226;80;21786;-65
2021/04/18 18:19:44;;;;;;;6.50;3.52;;;;;;;7.54;71.89;99856.80;1715934;80;22000;-62
2021/04/18 18:22:12;;;;;;;4.30;3.90;;;;;;;7.51;71.82;99864.72;1712626;80;21663;-68
2021/04/18 18:24:42;;;;;;;5.62;4.58;;;;;;;7.46;71.81;99863.55;1721681;80;21679;-68
2021/04/18 18:27:11;;;;;;;6.00;4.58;;;;;;;7.39;71.80;99873.30;1715031;82;21666;-68
2021/04/18 18:29:39;;;;;;;5.60;4.53;;;;;;;7.37;71.76;99871.63;1713249;80;21650;-68
2021/04/18 18:32:07;;;;;;;5.65;4.37;;;;;;;7.41;71.98;99868.03;1721467;82;21965;-67
2021/04/18 18:34:36;;;;;;;4.03;3.45;;;;;;;7.51;71.90;99869.95;1711978;82;21699;-68
2021/04/18 18:37:06;;;;;;;4.15;3.72;;;;;;;7.48;71.79;99861.75;1712501;82;21167;-67
2021/04/18 18:39:34;;;;;;;4.37;3.83;;;;;;;7.48;71.77;99860.86;1719233;80;21556;-68
2021/04/18 18:42:02;;;;;;;4.55;4.10;;;;;;;7.47;71.67;99859.16;1720175;80;21687;-66
2021/04/18 18:44:31;;;;;;;5.87;4.03;;;;;;;7.45;71.52;99863.58;1710474;82;22043;-67
2021/04/18 18:46:59;;;;;;;3.60;3.30;;;;;;;7.40;71.65;99861.95;1716979;82;21662;-67
2021/04/18 18:49:28;;;;;;;4.55;4.05;;;;;;;7.36;71.63;99858.98;1718560;81;21142;-66
2021/04/18 18:52:02;;;;;;;4.33;3.92;;;;;;;7.38;71.82;99859.83;1713064;80;21573;-68
2021/04/18 18:54:30;;;;;;;4.40;3.75;;;;;;;7.47;71.75;99860.02;1713042;80;22252;-68
2021/04/18 18:57:01;;;;;;;4.85;4.37;;;;;;;7.46;71.73;99858.73;1710953;80;21651;-68
2021/04/18 18:59:28;;;;;;;5.00;4.50;;;;;;;7.43;71.68;99858.38;1709537;82;21710;-68
2021/04/18 19:01:58;;;;;;;4.47;4.08;;;;;;;7.40;71.70;99852.80;1710807;82;21600;-67
2021/04/18 19:04:26;;;;;;;4.42;4.03;;;;;;;7.34;71.58;99853.39;1712152;80;21634;-66
2021/04/18 19:06:56;;;;;;;5.10;4.60;;;;;;;7.25;71.72;99854.48;1713178;80;21155;-65
2021/04/18 19:09:24;;;;;;;5.30;4.33;;;;;;;7.20;71.81;99848.53;1716838;81;22088;-64
2021/04/18 19:11:52;;;;;;;4.92;4.42;;;;;;;7.21;72.08;99849.80;1708847;80;21570;-66
2021/04/18 19:14:22;;;;;;;4.45;4.05;;;;;;;7.30;72.13;99847.38;1700624;82;21656;-65
2021/04/18 19:16:50;;;;;;;4.50;4.08;;;;;;;7.29;72.03;99852.64;1701270;81;21656;-64
2021/04/18 19:19:17;;;;;;;5.03;3.80;;;;;;;7.23;72.08;99849.73;1701892;81;21119;-65
2021/04/18 19:21:45;;;;;;;4.25;3.80;;;;;;;7.20;72.01;99847.22;1694242;81;21669;-64
2021/04/18 19:24:13;;;;;;;4.65;4.25;;;;;;;7.16;71.97;99847.74;1707170;81;26171;-65
2021/04/18 19:26:41;;;;;;;5.58;4.37;;;;;;;7.11;71.92;99850.92;1710570;81;21640;-61
2021/04/18 19:29:08;;;;;;;4.97;3.83;;;;;;;7.05;72.00;99845.00;1699000;81;21192;-62
2021/04/18 19:31:36;;;;;;;5.95;3.77;;;;;;;7.00;72.03;99847.71;1703865;81;21620;-61
2021/04/18 19:34:04;;;;;;;3.90;3.60;;;;;;;7.02;72.18;99844.61;1705274;81;21892;-65
2021/04/18 19:36:32;;;;;;;4.20;3.80;;;;;;;7.13;72.18;99846.96;1712427;81;21223;-62
2021/04/18 19:39:00;;;;;;;3.75;3.45;;;;;;;7.10;72.19;99842.68;1711188;81;21663;-61
2021/04/18 19:41:27;;;;;;;4.15;3.75;;;;;;;7.02;72.23;99838.92;1704435;82;21186;-64
2021/04/18 19:43:56;;;;;;;4.17;3.77;;;;;;;7.00;72.28;99843.79;1702300;81;21629;-67
2021/04/18 19:46:23;;;;;;;;;;;;;;;6.96;72.20;99840.84;1705155;82;21889;-63
2021/04/18 19:48:52;;;;;;;3.92;3.50;;;;;;;6.91;72.12;99839.67;1695475;82;20593;-74
2021/04/18 19:51:20;;;;;;;;;;;;;;;6.85;72.18;99840.25;1668791;83;21635;-69
2021/04/18 19:53:48;;;;;;;4.60;3.87;;;;;;;6.80;72.33;99836.46;1630645;85;20510;-69
2021/04/18 19:56:15;;;;;;;4.37;3.85;;;;;;;6.72;72.35;99836.61;1704583;81;21590;-71
2021/04/18 19:58:43;;;;;;;5.12;4.17;;;;;;;6.73;72.56;99835.73;1704330;81;21944;-69
2021/04/18 20:01:11;;;;;;;4.92;4.12;;;;;;;6.82;72.62;99837.28;1698455;81;21572;-73
2021/04/18 20:03:38;;;;;;;4.08;3.67;;;;;;;6.75;72.59;99834.39;1693641;81;21576;-70
2021/04/18 20:06:09;;;;;;;4.72;4.15;;;;;;;6.70;72.70;99843.64;1698041;82;21683;-70
2021/04/18 20:08:37;;;;;;;4.75;4.30;;;;;;;6.62;72.72;99842.52;1703643;82;21546;-69
2021/04/18 20:11:05;;;;;;;7.20;4.10;;;;;;;6.56;72.72;99849.65;1706214;82;21919;-69
2021/04/18 20:13:33;;;;;;;4.80;4.35;;;;;;;6.48;72.78;99847.22;1710779;81;21639;-69
2021/04/18 20:16:04;;;;;;;5.12;4.47;;;;;;;6.42;72.76;99846.03;1708699;80;21691;-69
2021/04/18 20:18:31;;;;;;;5.05;4.28;;;;;;;6.40;73.06;99846.51;1708597;80;21656;-70
2021/04/18 20:21:00;;;;;;;4.75;4.08;;;;;;;6.45;73.25;99848.58;1704299;82;21659;-69
2021/04/18 20:23:27;;;;;;;;;;;;;;;6.39;73.16;99846.97;1715813;80;22024;-71
2021/04/18 20:25:55;;;;;;;5.87;5.08;;;;;;;6.30;73.23;99841.94;1712039;82;20462;-68
2021/04/18 20:28:23;;;;;;;;;;;;;;;6.17;73.44;99844.41;1718610;80;21182;-75
2021/04/18 20:30:50;;;;;;;;;;;;;;;6.08;73.33;99837.62;1707158;80;20587;-74
2021/04/18 20:33:22;;;;;;;4.87;4.35;;;;;;;5.98;73.76;99837.42;1711043;82;20552;-71
2021/04/18 20:35:49;;;;;;;6.80;4.92;;;;;;;5.87;73.70;99847.19;1705221;81;21931;-70
2021/04/18 20:38:18;;;;;;;6.53;4.72;;;;;;;5.82;73.65;99842.92;1708155;80;21652;-70
2021/04/18 20:40:46;;;;;;;5.78;5.25;;;;;;;5.84;73.91;99844.20;1704935;80;21712;-71
2021/04/18 20:43:13;;;;;;;;;;;;;;;5.95;74.04;99841.35;1706474;82;21644;-69
2021/04/18 20:45:51;;;;;;;5.50;5.00;;;;;;;5.92;74.00;99845.35;1710984;80;20588;-74
2021/04/18 20:48:18;;;;;;;6.95;6.28;;;;;;;5.84;73.87;99842.91;1706711;82;22049;-70
2021/04/18 20:50:46;;;;;;;7.45;6.53;;;;;;;5.79;73.92;99842.13;1703305;80;21920;-71
2021/04/18 20:53:14;;;;;;;;;;;;;;;5.73;73.85;99839.65;1703896;80;21609;-70
2021/04/18 20:55:42;;;;;;;10.50;6.67;;;;;;;5.64;73.84;99842.83;1719249;80;20504;-71
2021/04/18 20:58:09;;;;;;;;;;;;;;;5.57;73.95;99841.22;1710787;82;21550;-70
2021/04/18 21:00:37;;;;;;;10.30;7.22;;;;;;;5.56;73.96;99846.05;1706057;80;21821;-69
2021/04/18 21:03:05;;;;;;;17.02;11.38;;;;;;;5.62;73.83;99843.31;1705539;82;21162;-69
2021/04/18 21:05:33;;;;;;;17.95;11.30;;;;;;;5.60;73.82;99850.76;1710164;80;21653;-69
2021/04/18 21:08:02;;;;;;;15.05;9.65;;;;;;;5.54;73.98;99849.55;1708440;80;21832;-69
2021/04/18 21:10:30;;;;;;;14.28;10.25;;;;;;;5.47;74.17;99848.82;1707701;80;21666;-69
2021/04/18 21:12:59;;;;;;;14.65;9.48;;;;;;;5.43;74.16;99851.93;1704403;82;21930;-70
2021/04/18 21:15:28;;;;;;;16.27;9.43;;;;;;;5.39;74.24;99849.42;1673203;83;21679;-69
2021/04/18 21:17:58;;;;;;;16.23;10.93;;;;;;;5.40;74.37;99846.75;1635249;84;21798;-69
2021/04/18 21:20:27;;;;;;;16.52;10.35;;;;;;;5.46;74.46;99846.67;1632522;84;21637;-69
2021/04/18 21:22:57;;;;;;;13.50;9.78;;;;;;;5.42;74.41;99850.19;1635018;84;21180;-70
2021/04/18 21:25:26;;;;;;;17.73;10.78;;;;;;;5.36;74.48;99842.95;1637038;84;22114;-69
2021/04/18 21:27:54;;;;;;;14.73;10.35;;;;;;;5.29;74.60;99843.94;1637831;84;21775;-69
2021/04/18 21:30:23;;;;;;;14.33;10.18;;;;;;;5.24;74.56;99847.95;1642423;84;21990;-69
2021/04/18 21:32:52;;;;;;;16.25;10.70;;;;;;;5.20;74.59;99842.38;1679473;82;21649;-69
2021/04/18 21:35:21;;;;;;;13.40;9.50;;;;;;;5.22;74.74;99847.97;1676339;84;21758;-68
2021/04/18 21:37:49;;;;;;;15.88;9.95;;;;;;;5.32;74.89;99847.80;1677670;82;22023;-68
2021/04/18 21:40:16;;;;;;;;;;;;;;;5.27;74.79;99849.17;1668968;84;21696;-68
2021/04/18 21:42:44;;;;;;;;;;;;;;;5.22;74.77;99848.42;1677580;82;20584;-69
2021/04/18 21:45:13;;;;;;;17.67;10.20;;;;;;;5.13;74.77;99852.03;1668519;84;20247;-69
2021/04/18 21:47:41;;;;;;;19.55;12.15;;;;;;;5.02;74.92;99850.91;1671264;82;21723;-69
2021/04/18 21:50:11;;;;;;;17.27;11.12;;;;;;;4.97;74.91;99854.05;1669077;83;22056;-69
2021/04/18 21:52:39;;;;;;;13.32;9.88;;;;;;;4.93;74.94;99856.27;1671444;82;21603;-69
2021/04/18 21:55:09;;;;;;;14.80;9.80;;;;;;;4.92;75.13;99852.41;1668408;84;21548;-69
2021/04/18 21:57:37;;;;;;;13.20;10.35;;;;;;;4.99;75.16;99852.28;1676187;82;21568;-71
2021/04/18 22:00:07;;;;;;;14.35;10.28;;;;;;;4.96;75.14;99857.98;1679662;82;21204;-69
2021/04/18 22:02:34;;;;;;;11.68;9.88;;;;;;;4.90;75.14;99861.55;1675712;82;21819;-69
2021/04/18 22:05:04;;;;;;;13.60;9.88;;;;;;;4.85;75.18;99858.14;1674386;82;21630;-70
2021/04/18 22:07:33;;;;;;;15.18;10.13;;;;;;;4.79;75.15;99858.25;1679146;84;21680;-69
2021/04/18 22:10:04;;;;;;;12.05;9.63;;;;;;;4.73;75.38;99854.00;1670403;83;21623;-71
2021/04/18 22:12:34;;;;;;;12.70;9.70;;;;;;;4.76;75.50;99846.56;1671574;84;21676;-72
2021/04/18 22:15:06;;;;;;;10.28;8.50;;;;;;;4.86;75.94;99842.50;1681178;82;22939;-69
2021/04/18 22:17:35;;;;;;;12.00;8.68;;;;;;;4.83;76.10;99846.44;1679841;82;21190;-68
2021/04/18 22:20:07;;;;;;;13.08;9.50;;;;;;;4.79;76.18;99842.63;1671921;84;21647;-70
2021/04/18 22:22:35;;;;;;;11.73;9.18;;;;;;;4.75;75.99;99839.20;1673875;82;21635;-70
2021/04/18 22:25:04;;;;;;;;;;;;;;;4.70;75.98;99844.06;1680059;82;21287;-70
2021/04/18 22:27:32;;;;;;;9.93;8.43;;;;;;;4.63;75.87;99845.47;1676098;84;20694;-70
2021/04/18 22:30:00;;;;;;;;;;;;;;;4.62;75.98;99841.58;1675404;82;21680;-69
2021/04/18 22:32:28;;;;;;;13.72;9.78;;;;;;;4.68;76.09;99841.48;1664355;84;20605;-70
2021/04/18 22:34:56;;;;;;;13.35;9.75;;;;;;;4.61;75.96;99835.48;1671016;82;21759;-70
2021/04/18 22:37:25;;;;;;;13.72;10.35;;;;;;;4.58;75.92;99836.01;1667127;84;21489;-69
2021/04/18 22:39:53;;;;;;;13.78;10.55;;;;;;;4.53;75.88;99832.60;1678249;82;22154;-69
2021/04/18 22:42:22;;;;;;;13.85;10.78;;;;;;;4.49;75.87;99834.39;1680233;82;21649;-71
2021/04/18 22:44:50;;;;;;;15.00;10.78;;;;;;;4.46;75.89;99837.03;1674142;82;21703;-70
2021/04/18 22:47:17;;;;;;;;;;;;;;;4.48;76.07;99827.45;1679306;82;21628;-70
2021/04/18 22:49:46;;;;;;;11.57;9.98;;;;;;;4.56;76.04;99828.63;1672987;84;20599;-72
2021/04/18 22:52:15;;;;;;;11.25;9.25;;;;;;;4.53;76.05;99830.85;1674072;82;22667;-69
2021/04/18 22:54:44;;;;;;;11.88;9.35;;;;;;;4.49;76.21;99826.13;1674626;82;21558;-69
2021/04/18 22:57:12;;;;;;;12.65;9.35;;;;;;;4.45;76.26;99826.21;1636680;84;21675;-70
2021/04/18 22:59:40;;;;;;;;;;;;;;;4.41;76.34;99826.70;1667100;84;21703;-69
2021/04/18 23:02:08;;;;;;;;;;;;;;;4.38;77.01;99827.18;1673345;84;20495;-70
2021/04/18 23:04:37;;;;;;;13.03;10.35;;;;;;;4.39;77.44;99819.35;1675528;82;21973;-71
2021/04/18 23:07:06;;;;;;;13.53;9.90;;;;;;;4.39;77.22;99819.77;1679315;84;21636;-70
2021/04/18 23:09:37;;;;;;;14.95;10.05;;;;;;;4.29;77.54;99817.33;1677495;82;22066;-70
2021/04/18 23:12:07;;;;;;;12.45;10.53;;;;;;;4.24;77.48;99815.67;1676354;84;21214;-70
2021/04/18 23:14:35;;;;;;;11.90;9.03;;;;;;;4.23;77.38;99820.00;1693349;83;21655;-69
2021/04/18 23:17:03;;;;;;;13.55;10.18;;;;;;;4.23;77.33;99817.39;1691356;82;21918;-69
2021/04/18 23:19:32;;;;;;;13.35;10.03;;;;;;;4.25;77.15;99810.87;1685195;83;21600;-68
2021/04/18 23:22:00;;;;;;;12.78;10.30;;;;;;;4.34;77.15;99813.80;1677660;83;21682;-68
2021/04/18 23:24:28;;;;;;;13.72;10.25;;;;;;;4.35;77.28;99813.78;1684860;83;21666;-68
2021/04/18 23:26:57;;;;;;;11.93;9.98;;;;;;;4.33;77.30;99812.05;1690691;82;21688;-68
2021/04/18 23:29:25;;;;;;;12.45;10.23;;;;;;;4.33;77.19;99813.36;1692537;82;22510;-68
2021/04/18 23:31:53;;;;;;;16.70;10.48;;;;;;;4.31;77.07;99812.52;1691881;82;21699;-68
2021/04/18 23:34:22;;;;;;;14.85;10.70;;;;;;;4.29;77.04;99806.03;1681191;82;21579;-69
2021/04/18 23:36:50;;;;;;;16.15;11.35;;;;;;;4.36;77.15;99809.42;1683399;82;21560;-70
2021/04/18 23:39:18;;;;;;;12.13;10.03;;;;;;;4.46;77.09;99806.66;1690531;82;21667;-69
2021/04/18 23:41:47;;;;;;;14.73;10.98;;;;;;;4.31;77.05;99787.34;1680364;82;21884;-68
2021/04/18 23:44:15;;;;;;;16.40;11.33;;;;;;;4.41;77.10;99809.77;1684513;83;21205;-71
2021/04/18 23:46:45;;;;;;;17.85;11.83;;;;;;;4.40;77.07;99818.91;1683251;83;21595;-72
2021/04/18 23:49:14;;;;;;;21.25;14.05;;;;;;;4.37;77.03;99813.73;1689169;83;21181;-71
2021/04/18 23:51:42;;;;;;;24.80;15.78;;;;;;;4.41;77.20;99807.62;1693650;83;21698;-71
2021/04/18 23:54:10;;;;;;;25.37;16.93;;;;;;;4.51;77.34;99805.28;1682476;82;21968;-71